KLRO/LRO METAR and TAF weather

Enter ICAO airport designator
Station Type Date Time Source
KLRO METAR 2019/12/09 22:15 UTC NOAA

KLRO 092215Z AUTO 20004KT 10SM CLR 18/17 A3003 RMK AO2


Station Type Date Time Source
KLRO Decoded METAR 2019/12/09 22:15 UTC NOAA

Station name not available
Dec 09, 2019 - 05:15 PM EST / 2019.12.09 2215 UTC
Wind: from the SSW (200 degrees) at 5 MPH (4 KT):0
Visibility: 10 mile(s):0
Sky conditions: clear
Temperature: 64 F (18 C)
Dew Point: 62 F (17 C)
Relative Humidity: 93%
Pressure (altimeter): 30.03 in. Hg (1016 hPa)
ob: KLRO 092215Z AUTO 20004KT 10SM CLR 18/17 A3003 RMK AO2
cycle: 22

Station Type Date Time Source
KLRO TAF UTC NOAA

Error!

Example: see airport list